Time;durP1;ratioP1;P1;durP2;ratioP2;P2;SDS_P1;SDS_P2;PMS_P1;PMS_P2;Temp;Humidity;BMP_temperature;BMP_pressure;BME280_temperature;BME280_humidity;BME280_pressure;Samples;Min_cycle;Max_cycle;Signal;HPM_P1;HPM_P2
2022/06/05 00:00:18;;;;;;;7.00;6.50;;;19.70;99.90;;;;;;5097826;28;20643;-91
2022/06/05 00:03:01;;;;;;;7.63;7.13;;;19.70;99.90;;;;;;5097989;28;20616;-91
2022/06/05 00:05:35;;;;;;;6.50;6.10;;;19.70;99.90;;;;;;5086916;28;20648;-91
2022/06/05 00:08:19;;;;;;;6.80;6.40;;;19.70;99.90;;;;;;5096188;28;20639;-89
2022/06/05 00:10:53;;;;;;;7.90;7.40;;;19.70;99.90;;;;;;5101350;28;20652;-90
2022/06/05 00:13:29;;;;;;;7.10;6.60;;;19.70;99.90;;;;;;5095668;28;20747;-91
2022/06/05 00:15:57;;;;;;;7.30;6.70;;;19.70;99.90;;;;;;5087405;28;20625;-90
2022/06/05 00:18:27;;;;;;;6.90;6.43;;;19.60;99.90;;;;;;5096738;28;20986;-90
2022/06/05 00:20:54;;;;;;;6.90;6.40;;;19.60;99.90;;;;;;5092687;28;20674;-92
2022/06/05 00:23:21;;;;;;;7.23;6.63;;;19.50;99.90;;;;;;5092527;28;21025;-93
2022/06/05 00:25:54;;;;;;;7.30;6.80;;;19.50;99.90;;;;;;5093812;28;20633;-91
2022/06/05 00:28:33;;;;;;;8.10;7.50;;;19.50;99.90;;;;;;5091228;28;20636;-92
2022/06/05 00:31:06;;;;;;;7.70;7.20;;;19.50;99.90;;;;;;5093461;28;21077;-92
2022/06/05 00:33:37;;;;;;;7.70;7.20;;;19.50;99.90;;;;;;5090664;28;21060;-92
2022/06/05 00:36:14;;;;;;;7.37;6.83;;;19.40;99.90;;;;;;5087004;28;20675;-90
2022/06/05 00:38:47;;;;;;;7.83;7.33;;;19.40;99.90;;;;;;5092677;28;20632;-92
2022/06/05 00:41:34;;;;;;;8.13;7.60;;;19.50;99.90;;;;;;5091825;28;20985;-91
2022/06/05 00:44:05;;;;;;;7.50;7.00;;;19.40;99.90;;;;;;5092177;28;20612;-92
2022/06/05 00:46:34;;;;;;;7.50;7.00;;;19.40;99.90;;;;;;5078372;28;20603;-91
2022/06/05 00:49:03;;;;;;;7.47;6.70;;;19.40;99.90;;;;;;5096791;28;20643;-91
2022/06/05 00:51:30;;;;;;;7.50;7.00;;;19.40;99.90;;;;;;5094644;28;21250;-91
2022/06/05 00:53:57;;;;;;;7.33;6.87;;;19.40;99.90;;;;;;5092736;28;21118;-91
2022/06/05 00:56:23;;;;;;;8.30;7.60;;;19.40;99.90;;;;;;5091953;28;20632;-91
2022/06/05 00:58:52;;;;;;;8.17;7.67;;;19.40;99.90;;;;;;5088934;28;20727;-91
2022/06/05 01:01:20;;;;;;;7.73;7.13;;;19.40;99.90;;;;;;5089821;28;20662;-91
2022/06/05 01:03:47;;;;;;;7.90;7.40;;;19.40;99.90;;;;;;5092412;28;20624;-91
2022/06/05 01:06:16;;;;;;;8.40;7.80;;;19.40;99.90;;;;;;5093899;28;20605;-91
2022/06/05 01:08:43;;;;;;;7.70;7.20;;;19.40;99.90;;;;;;5088021;28;20632;-91
2022/06/05 01:11:18;;;;;;;8.37;7.77;;;19.40;99.90;;;;;;5093163;28;20642;-92
2022/06/05 01:13:58;;;;;;;8.60;8.00;;;19.40;99.90;;;;;;5093130;28;21012;-93
2022/06/05 01:16:29;;;;;;;8.50;6.87;;;19.40;99.90;;;;;;5089386;28;20967;-91
2022/06/05 01:19:18;;;;;;;8.63;8.13;;;19.40;99.90;;;;;;5092669;28;20676;-90
2022/06/05 01:22:20;;;;;;;7.87;7.37;;;19.40;99.90;;;;;;5090230;28;20615;-89
2022/06/05 01:25:14;;;;;;;8.70;8.20;;;19.30;99.90;;;;;;5076723;28;20627;-92
2022/06/05 01:27:47;;;;;;;8.13;7.63;;;19.40;99.90;;;;;;5085676;28;20636;-91
2022/06/05 01:30:18;;;;;;;7.40;6.90;;;19.40;99.90;;;;;;5110833;28;20636;-91
2022/06/05 01:32:55;;;;;;;7.53;7.03;;;19.30;99.90;;;;;;5097086;28;21196;-90
2022/06/05 01:35:26;;;;;;;8.10;7.50;;;19.30;99.90;;;;;;5081857;28;20621;-91
2022/06/05 01:38:00;;;;;;;7.87;7.27;;;19.30;99.90;;;;;;5087861;28;20628;-90
2022/06/05 01:40:31;;;;;;;8.50;7.87;;;19.20;99.90;;;;;;5097567;28;20642;-90
2022/06/05 01:43:04;;;;;;;7.80;7.20;;;19.20;99.90;;;;;;5095961;28;20659;-91
2022/06/05 01:45:37;;;;;;;7.23;6.63;;;19.20;99.90;;;;;;5087955;28;21162;-91
2022/06/05 01:48:07;;;;;;;7.90;7.30;;;19.30;99.90;;;;;;5086688;28;20629;-93
2022/06/05 01:50:40;;;;;;;7.60;7.10;;;19.30;99.90;;;;;;5094931;28;20651;-91
2022/06/05 01:53:13;;;;;;;7.97;7.43;;;19.30;99.90;;;;;;5090831;28;20687;-92
2022/06/05 01:55:46;;;;;;;7.67;7.03;;;19.20;99.90;;;;;;5085487;28;20620;-91
2022/06/05 01:58:17;;;;;;;7.87;7.17;;;19.20;99.90;;;;;;5093597;28;20593;-91
2022/06/05 02:00:49;;;;;;;7.37;6.87;;;19.10;99.90;;;;;;5091853;28;20647;-91
2022/06/05 02:03:21;;;;;;;7.97;7.47;;;19.10;99.90;;;;;;5092552;28;20632;-91
2022/06/05 02:05:53;;;;;;;8.60;8.00;;;19.10;99.90;;;;;;5088414;28;20656;-91
2022/06/05 02:08:25;;;;;;;7.83;7.03;;;19.10;99.90;;;;;;5082266;28;21033;-91
2022/06/05 02:10:59;;;;;;;7.60;7.10;;;19.10;99.90;;;;;;5089897;28;21178;-91
2022/06/05 02:13:27;;;;;;;8.43;7.70;;;19.00;99.90;;;;;;5089449;28;21013;-92
2022/06/05 02:15:54;;;;;;;8.63;7.93;;;19.10;99.90;;;;;;5091540;28;20632;-91
2022/06/05 02:18:23;;;;;;;7.63;7.13;;;19.10;99.90;;;;;;5086736;28;20689;-92
2022/06/05 02:20:50;;;;;;;7.80;7.30;;;19.10;99.90;;;;;;5090640;28;20677;-91
2022/06/05 02:23:23;;;;;;;8.80;7.90;;;19.10;99.90;;;;;;5085903;28;20672;-91
2022/06/05 02:25:50;;;;;;;8.40;7.80;;;19.10;99.90;;;;;;5090431;28;20634;-93
2022/06/05 02:28:21;;;;;;;8.60;8.10;;;19.10;99.90;;;;;;5090639;28;20666;-91
2022/06/05 02:31:01;;;;;;;7.30;6.80;;;19.10;99.90;;;;;;5093741;28;21233;-92
2022/06/05 02:33:39;;;;;;;8.30;7.70;;;19.10;99.90;;;;;;5086784;28;20664;-92
2022/06/05 02:36:13;;;;;;;7.40;6.80;;;19.00;99.90;;;;;;5091157;28;20655;-91
2022/06/05 02:38:54;;;;;;;8.90;8.27;;;19.00;99.90;;;;;;5090027;28;20623;-91
2022/06/05 02:41:32;;;;;;;8.90;8.30;;;19.00;99.90;;;;;;5091505;28;20742;-92
2022/06/05 02:46:58;;;;;;;8.57;7.93;;;18.90;99.90;;;;;;5100859;28;20594;-90
2022/06/05 02:49:29;;;;;;;7.70;7.20;;;18.90;99.90;;;;;;5107340;28;21235;-91
2022/06/05 02:52:02;;;;;;;9.97;9.37;;;18.90;99.90;;;;;;5098556;28;21052;-91
2022/06/05 02:54:29;;;;;;;8.73;8.03;;;18.80;99.90;;;;;;5096462;28;20657;-91
2022/06/05 02:56:56;;;;;;;9.27;8.27;;;18.80;99.90;;;;;;5094199;28;20718;-92
2022/06/05 02:59:24;;;;;;;8.03;7.43;;;18.80;99.90;;;;;;5093702;28;20646;-92
2022/06/05 03:04:37;;;;;;;7.60;7.00;;;18.80;99.90;;;;;;5096772;28;20622;-91
2022/06/05 03:07:05;;;;;;;7.83;7.37;;;18.70;99.90;;;;;;5098690;28;21169;-92
2022/06/05 03:09:33;;;;;;;7.47;6.97;;;18.70;99.90;;;;;;5096292;28;20578;-91
2022/06/05 03:12:01;;;;;;;8.03;7.43;;;18.60;99.90;;;;;;5095010;28;20707;-91
2022/06/05 03:14:28;;;;;;;8.40;7.80;;;18.60;99.90;;;;;;5077016;28;20662;-92
2022/06/05 03:16:56;;;;;;;8.30;7.70;;;18.60;99.90;;;;;;5094805;28;20988;-92
2022/06/05 03:19:23;;;;;;;7.27;6.77;;;18.60;99.90;;;;;;5095388;28;20612;-92
2022/06/05 03:21:50;;;;;;;10.77;7.43;;;18.60;99.90;;;;;;5093512;28;20624;-92
2022/06/05 03:24:17;;;;;;;8.70;8.20;;;18.60;99.90;;;;;;5090345;28;21189;-93
2022/06/05 03:26:44;;;;;;;9.13;8.50;;;18.50;99.90;;;;;;5091759;28;20630;-92
2022/06/05 03:29:11;;;;;;;9.00;8.40;;;18.50;99.90;;;;;;5096686;28;20638;-92
2022/06/05 03:31:39;;;;;;;8.37;7.77;;;18.60;99.90;;;;;;5093952;28;20612;-91
2022/06/05 03:34:08;;;;;;;8.60;8.10;;;18.60;99.90;;;;;;5093896;28;20653;-93
2022/06/05 03:36:35;;;;;;;8.00;7.50;;;18.70;99.90;;;;;;5091681;28;20630;-92
2022/06/05 03:39:02;;;;;;;8.97;8.27;;;18.70;99.90;;;;;;5096505;28;20722;-92
2022/06/05 03:41:28;;;;;;;8.10;7.60;;;18.70;99.90;;;;;;5092177;28;20656;-92
2022/06/05 03:43:57;;;;;;;9.60;8.80;;;18.70;99.90;;;;;;5093230;28;20628;-91
2022/06/05 03:46:23;;;;;;;8.30;7.70;;;18.70;99.90;;;;;;5090535;28;20677;-91
2022/06/05 03:48:50;;;;;;;8.70;8.10;;;18.80;99.90;;;;;;5094103;28;20649;-91
2022/06/05 03:51:21;;;;;;;8.50;7.80;;;18.80;99.90;;;;;;5092539;28;20653;-91
2022/06/05 03:53:48;;;;;;;8.47;7.87;;;18.90;99.90;;;;;;5089636;28;20659;-91
2022/06/05 03:56:18;;;;;;;9.83;8.93;;;18.90;99.90;;;;;;5091650;28;20695;-90
2022/06/05 03:58:45;;;;;;;8.73;8.10;;;18.90;99.90;;;;;;5094343;28;20627;-91
2022/06/05 04:01:16;;;;;;;8.03;7.53;;;18.90;99.90;;;;;;5092051;28;20647;-91
2022/06/05 04:03:43;;;;;;;8.57;8.07;;;19.00;99.90;;;;;;5090756;28;20620;-90
2022/06/05 04:06:12;;;;;;;7.57;6.97;;;19.00;99.90;;;;;;5093419;28;21010;-92
2022/06/05 04:08:41;;;;;;;7.77;7.17;;;19.00;99.90;;;;;;5090976;28;21277;-92
2022/06/05 04:11:10;;;;;;;7.40;6.80;;;18.90;99.90;;;;;;5090641;28;20635;-91
2022/06/05 04:13:38;;;;;;;8.40;7.90;;;18.90;99.90;;;;;;5094996;28;21228;-91
2022/06/05 04:16:10;;;;;;;8.03;7.53;;;19.00;99.90;;;;;;5090452;28;20576;-93
2022/06/05 04:18:37;;;;;;;8.93;8.03;;;19.00;99.90;;;;;;5074248;28;20950;-93
2022/06/05 04:21:07;;;;;;;9.40;8.63;;;18.90;99.90;;;;;;5094159;28;20674;-94
2022/06/05 04:23:35;;;;;;;8.90;8.20;;;18.90;99.90;;;;;;5095120;28;20625;-94
2022/06/05 04:26:07;;;;;;;8.33;7.73;;;19.00;99.90;;;;;;5094217;28;20629;-94
2022/06/05 04:28:34;;;;;;;11.17;9.97;;;19.00;99.90;;;;;;5096936;28;20666;-93
2022/06/05 04:31:01;;;;;;;9.50;8.80;;;19.00;99.90;;;;;;5092424;28;20738;-93
2022/06/05 04:33:31;;;;;;;9.73;9.03;;;18.90;99.90;;;;;;5096532;28;20779;-92
2022/06/05 04:35:57;;;;;;;9.77;9.10;;;18.90;99.90;;;;;;5094351;28;21037;-93
2022/06/05 04:38:24;;;;;;;9.17;8.57;;;18.90;99.90;;;;;;5094251;28;20645;-94
2022/06/05 04:40:51;;;;;;;9.47;8.63;;;18.90;99.90;;;;;;5092864;28;20737;-94
2022/06/05 04:43:20;;;;;;;8.83;8.13;;;18.90;99.90;;;;;;5089124;28;20642;-94
2022/06/05 04:45:46;;;;;;;8.83;8.17;;;18.80;99.90;;;;;;5091009;28;20636;-94
2022/06/05 04:48:14;;;;;;;9.87;9.10;;;18.80;99.90;;;;;;5092315;28;20628;-94
2022/06/05 04:50:41;;;;;;;10.27;9.27;;;18.80;99.90;;;;;;5095261;28;20738;-93
2022/06/05 04:53:14;;;;;;;9.20;8.70;;;18.80;99.90;;;;;;5088967;28;20621;-92
2022/06/05 04:55:40;;;;;;;9.27;8.67;;;18.80;99.90;;;;;;5097000;28;20660;-92
2022/06/05 04:58:08;;;;;;;8.77;8.23;;;18.80;99.90;;;;;;5072249;28;20636;-93
2022/06/05 05:00:39;;;;;;;10.10;9.30;;;18.80;99.90;;;;;;5097904;28;20738;-92
2022/06/05 05:03:06;;;;;;;13.70;10.20;;;18.70;99.90;;;;;;5102285;28;20621;-91
2022/06/05 05:05:34;;;;;;;11.10;9.90;;;18.70;99.90;;;;;;5094485;28;21153;-92
2022/06/05 05:08:01;;;;;;;12.70;11.40;;;18.60;99.90;;;;;;5094006;28;20807;-93
2022/06/05 05:10:29;;;;;;;12.30;11.50;;;18.50;99.90;;;;;;5090512;28;20674;-92
2022/06/05 05:12:58;;;;;;;12.40;11.50;;;18.40;99.90;;;;;;5095750;28;20624;-95
2022/06/05 05:15:24;;;;;;;13.43;12.53;;;18.30;99.90;;;;;;5093713;28;20659;-93
2022/06/05 05:17:53;;;;;;;13.97;12.97;;;18.30;99.90;;;;;;5088174;28;21034;-94
2022/06/05 05:20:21;;;;;;;14.20;13.27;;;18.20;99.90;;;;;;5089870;28;21309;-94
2022/06/05 05:22:48;;;;;;;14.10;13.10;;;18.20;99.90;;;;;;5092106;28;20642;-93
2022/06/05 05:25:14;;;;;;;13.30;12.47;;;18.20;99.90;;;;;;5089543;28;20994;-93
2022/06/05 05:27:41;;;;;;;13.77;12.60;;;18.10;99.90;;;;;;5083564;28;20699;-92
2022/06/05 05:30:10;;;;;;;13.67;12.83;;;18.10;99.90;;;;;;5090304;28;20642;-90
2022/06/05 05:32:38;;;;;;;13.90;13.00;;;18.10;99.90;;;;;;5094235;28;20609;-90
2022/06/05 05:35:07;;;;;;;16.10;14.70;;;18.00;99.90;;;;;;5094390;28;20662;-89
2022/06/05 05:37:34;;;;;;;15.70;14.43;;;17.90;99.90;;;;;;5091736;28;20627;-88
2022/06/05 05:42:46;;;;;;;15.90;14.87;;;17.80;99.90;;;;;;5084142;28;20615;-88
2022/06/05 05:45:12;;;;;;;17.70;16.50;;;17.80;99.90;;;;;;5094222;28;20672;-87
2022/06/05 05:47:39;;;;;;;17.23;15.67;;;17.70;99.90;;;;;;5091868;28;20632;-87
2022/06/05 05:50:11;;;;;;;16.93;15.70;;;17.70;99.90;;;;;;5085434;28;20643;-89
2022/06/05 05:52:39;;;;;;;16.80;15.53;;;17.70;99.90;;;;;;5085691;28;20631;-88
2022/06/05 05:55:07;;;;;;;18.10;16.90;;;17.70;99.90;;;;;;5089428;28;20950;-87
2022/06/05 05:57:34;;;;;;;17.40;16.20;;;17.80;99.90;;;;;;5088570;28;20628;-88
2022/06/05 06:00:01;;;;;;;17.87;16.60;;;17.60;99.90;;;;;;5086128;28;21341;-88
2022/06/05 06:02:28;;;;;;;17.90;16.60;;;17.60;99.90;;;;;;5089551;28;20634;-89
2022/06/05 06:04:55;;;;;;;18.77;17.03;;;17.60;99.90;;;;;;5089617;28;20634;-89
2022/06/05 06:07:23;;;;;;;19.30;18.00;;;17.70;99.90;;;;;;5085623;28;20628;-88
2022/06/05 06:09:50;;;;;;;17.80;16.40;;;17.60;99.90;;;;;;5091032;28;20660;-88
2022/06/05 06:12:17;;;;;;;17.67;16.37;;;17.70;99.90;;;;;;5094327;28;20658;-87
2022/06/05 06:14:43;;;;;;;17.30;16.00;;;17.70;99.90;;;;;;5094773;28;20648;-87
2022/06/05 06:17:10;;;;;;;16.00;14.70;;;17.70;99.90;;;;;;5090713;28;20634;-88
2022/06/05 06:19:39;;;;;;;17.40;15.67;;;17.60;99.90;;;;;;5094423;28;20656;-87
2022/06/05 06:22:06;;;;;;;15.60;14.30;;;17.60;99.90;;;;;;5089652;28;20622;-87
2022/06/05 06:24:34;;;;;;;17.00;15.60;;;17.70;99.90;;;;;;5092907;28;20611;-89
2022/06/05 06:27:01;;;;;;;14.37;13.30;;;17.70;99.90;;;;;;5086439;28;20629;-88
2022/06/05 06:29:28;;;;;;;15.60;14.37;;;17.80;99.90;;;;;;5085201;28;20623;-87
2022/06/05 06:31:55;;;;;;;15.00;13.90;;;17.60;99.90;;;;;;5096408;28;20628;-87
2022/06/05 06:34:22;;;;;;;12.93;11.73;;;17.60;99.90;;;;;;5092860;28;21114;-89
2022/06/05 06:36:49;;;;;;;12.37;11.27;;;17.60;99.90;;;;;;5086905;28;20624;-89
2022/06/05 06:39:16;;;;;;;9.83;9.00;;;17.60;99.90;;;;;;5089113;28;20644;-89
2022/06/05 06:41:44;;;;;;;8.30;7.57;;;17.60;99.90;;;;;;5086762;28;20619;-89
2022/06/05 06:44:12;;;;;;;7.83;7.13;;;17.60;99.90;;;;;;5091483;28;20993;-90
2022/06/05 06:46:39;;;;;;;6.47;6.00;;;17.50;99.90;;;;;;5094845;28;20623;-88
2022/06/05 06:49:07;;;;;;;6.40;5.87;;;17.60;99.90;;;;;;5092462;28;20633;-88
2022/06/05 06:51:34;;;;;;;6.70;5.70;;;17.60;99.90;;;;;;5097241;28;20681;-89
2022/06/05 06:54:01;;;;;;;7.83;5.50;;;17.60;99.90;;;;;;5091366;28;21464;-89
2022/06/05 06:56:29;;;;;;;4.90;4.60;;;17.70;99.90;;;;;;5093504;28;20663;-88
2022/06/05 06:59:00;;;;;;;4.77;4.00;;;17.70;99.90;;;;;;5087545;28;20638;-88
2022/06/05 07:01:27;;;;;;;8.63;5.20;;;17.80;99.90;;;;;;5093883;28;20695;-88
2022/06/05 07:03:54;;;;;;;4.40;4.10;;;17.80;99.90;;;;;;5069409;28;20634;-89
2022/06/05 07:06:21;;;;;;;3.97;3.67;;;17.90;99.90;;;;;;5092958;28;20620;-87
2022/06/05 07:08:49;;;;;;;5.90;4.30;;;17.80;99.90;;;;;;5092817;28;20639;-89
2022/06/05 07:11:18;;;;;;;5.80;3.70;;;17.90;99.90;;;;;;5092151;28;20647;-89
2022/06/05 07:13:45;;;;;;;5.80;3.70;;;17.90;99.90;;;;;;5090690;28;20662;-88
2022/06/05 07:16:13;;;;;;;4.00;3.33;;;17.90;99.90;;;;;;5093741;28;20767;-88
2022/06/05 07:18:40;;;;;;;3.77;3.40;;;17.90;99.90;;;;;;5100256;28;20643;-89
2022/06/05 07:21:11;;;;;;;4.83;3.60;;;17.90;99.90;;;;;;5088924;28;20735;-89
2022/06/05 07:23:38;;;;;;;4.00;3.60;;;18.00;99.90;;;;;;5085034;28;20622;-88
2022/06/05 07:26:07;;;;;;;3.47;3.23;;;18.00;99.90;;;;;;5093379;28;21544;-88
2022/06/05 07:28:34;;;;;;;3.40;3.10;;;18.00;99.90;;;;;;5085908;28;20879;-88
2022/06/05 07:31:03;;;;;;;4.83;4.53;;;17.90;99.90;;;;;;5095847;28;20846;-79
2022/06/05 07:33:32;;;;;;;4.47;4.07;;;17.90;99.90;;;;;;5087717;28;20644;-79
2022/06/05 07:36:00;;;;;;;3.57;3.30;;;18.30;99.90;;;;;;5092775;28;20659;-79
2022/06/05 07:38:27;;;;;;;3.30;2.60;;;18.70;99.90;;;;;;5092458;28;20756;-79
2022/06/05 07:40:54;;;;;;;2.43;2.20;;;19.00;99.90;;;;;;5094644;28;21202;-79
2022/06/05 07:43:21;;;;;;;3.90;3.03;;;19.00;99.90;;;;;;5099655;28;20620;-79
2022/06/05 07:45:48;;;;;;;2.57;2.40;;;19.10;99.90;;;;;;5093571;28;20627;-79
2022/06/05 07:48:17;;;;;;;2.67;2.47;;;18.80;99.90;;;;;;5093427;28;20660;-80
2022/06/05 07:56:10;;;;;;;5.10;2.60;;;18.70;99.90;;;;;;5094552;28;20690;-80
2022/06/05 07:58:37;;;;;;;2.23;2.07;;;19.00;99.90;;;;;;5087344;28;21241;-78
2022/06/05 08:01:07;;;;;;;3.43;2.17;;;19.20;99.90;;;;;;5094177;28;20637;-79
2022/06/05 08:03:34;;;;;;;2.60;2.40;;;19.50;99.90;;;;;;5093868;28;20971;-79
2022/06/05 08:06:03;;;;;;;3.00;2.80;;;19.70;99.90;;;;;;5089926;28;20647;-79
2022/06/05 08:08:30;;;;;;;2.23;2.13;;;20.00;99.90;;;;;;5088671;28;21233;-79
2022/06/05 08:11:03;;;;;;;4.80;2.67;;;20.10;99.90;;;;;;5089284;28;20616;-78
2022/06/05 08:13:30;;;;;;;2.13;1.93;;;20.20;99.90;;;;;;5085574;28;20844;-78
2022/06/05 08:15:57;;;;;;;6.70;2.47;;;20.40;99.90;;;;;;5088785;28;20660;-78
2022/06/05 08:18:24;;;;;;;2.77;2.47;;;20.50;99.90;;;;;;5094534;28;20650;-78
2022/06/05 08:20:51;;;;;;;3.27;2.10;;;20.50;99.90;;;;;;5093338;28;20614;-78
2022/06/05 08:23:23;;;;;;;2.00;1.80;;;20.60;99.90;;;;;;5092129;28;20616;-78
2022/06/05 08:25:50;;;;;;;3.10;2.10;;;20.70;99.90;;;;;;5096530;28;20615;-78
2022/06/05 08:28:17;;;;;;;2.20;2.00;;;20.90;99.90;;;;;;5086559;28;20674;-78
2022/06/05 08:30:44;;;;;;;2.70;2.20;;;20.90;99.90;;;;;;5097869;28;20622;-78
2022/06/05 08:33:12;;;;;;;3.13;2.10;;;21.00;99.90;;;;;;5091314;28;20623;-78
2022/06/05 08:35:39;;;;;;;2.00;1.90;;;21.00;99.90;;;;;;5087900;28;21217;-78
2022/06/05 08:43:53;;;;;;;1.90;1.80;;;21.30;99.90;;;;;;5092870;28;20629;-79
2022/06/05 08:46:26;;;;;;;1.50;1.40;;;21.30;99.90;;;;;;5087133;28;20615;-78
2022/06/05 08:48:57;;;;;;;1.70;1.60;;;21.40;99.90;;;;;;5087645;28;20666;-78
2022/06/05 08:51:39;;;;;;;6.70;2.00;;;21.50;99.90;;;;;;5093222;28;20616;-91
2022/06/05 08:54:12;;;;;;;2.80;2.60;;;21.40;99.90;;;;;;5092156;28;20634;-90
2022/06/05 08:56:44;;;;;;;1.70;1.60;;;21.20;99.90;;;;;;5094073;28;20668;-90
2022/06/05 08:59:17;;;;;;;2.17;1.83;;;21.20;99.90;;;;;;5090280;28;20658;-91
2022/06/05 09:01:52;;;;;;;2.40;1.90;;;21.10;99.90;;;;;;5090181;28;20955;-90
2022/06/05 09:04:46;;;;;;;2.37;2.17;;;21.20;99.90;;;;;;5088895;28;20623;-91
2022/06/05 09:07:17;;;;;;;6.30;1.70;;;21.30;99.90;;;;;;5084034;28;20655;-90
2022/06/05 09:09:51;;;;;;;5.00;1.80;;;21.30;99.90;;;;;;5096232;28;20662;-90
2022/06/05 09:12:33;;;;;;;1.83;1.70;;;21.20;99.90;;;;;;5087794;28;21241;-91
2022/06/05 09:15:12;;;;;;;2.87;2.67;;;21.40;99.90;;;;;;5088013;28;21221;-90
2022/06/05 09:17:51;;;;;;;2.27;2.07;;;21.40;99.90;;;;;;5085314;28;20648;-90
2022/06/05 09:20:19;;;;;;;1.80;1.70;;;21.60;99.90;;;;;;5092735;28;20638;-90
2022/06/05 09:22:50;;;;;;;2.33;1.93;;;21.70;99.90;;;;;;5110839;28;20689;-90
2022/06/05 09:25:46;;;;;;;4.37;2.13;;;21.70;99.90;;;;;;5100412;28;22240;-90
2022/06/05 09:28:35;;;;;;;2.80;1.87;;;21.80;99.90;;;;;;5084788;28;20628;-91
2022/06/05 09:31:18;;;;;;;3.07;1.90;;;22.00;99.90;;;;;;5107746;27;20632;-89
2022/06/05 09:33:46;;;;;;;3.00;1.97;;;22.20;99.90;;;;;;5088033;28;20677;-90
2022/06/05 09:36:18;;;;;;;2.97;2.77;;;22.20;99.90;;;;;;5085906;28;20750;-89
2022/06/05 09:38:49;;;;;;;2.50;1.90;;;22.40;99.90;;;;;;5087801;28;20635;-89
2022/06/05 09:41:32;;;;;;;1.90;1.80;;;22.40;99.90;;;;;;5084243;28;20628;-89
2022/06/05 09:44:19;;;;;;;1.80;1.70;;;22.40;99.90;;;;;;5087819;28;20632;-90
2022/06/05 09:46:57;;;;;;;2.00;1.80;;;22.40;99.90;;;;;;5084319;28;20636;-90
2022/06/05 09:49:31;;;;;;;1.93;1.80;;;22.50;99.90;;;;;;5084735;28;20910;-91
2022/06/05 09:52:04;;;;;;;4.90;1.63;;;22.50;99.90;;;;;;5086728;28;20663;-91
2022/06/05 09:54:33;;;;;;;2.07;1.80;;;22.60;99.90;;;;;;5083814;28;21297;-91
2022/06/05 10:00:09;;;;;;;1.30;1.17;;;22.60;99.90;;;;;;5090958;28;20575;-91
2022/06/05 10:02:38;;;;;;;1.10;1.00;;;22.40;99.90;;;;;;5087432;28;20584;-91
2022/06/05 10:05:16;;;;;;;1.13;1.00;;;22.40;99.90;;;;;;5092181;28;20659;-91
2022/06/05 10:07:52;;;;;;;2.00;1.00;;;22.70;99.90;;;;;;5090420;28;20772;-91
2022/06/05 10:10:23;;;;;;;2.20;1.40;;;22.80;99.90;;;;;;5090241;28;20722;-90
2022/06/05 10:12:54;;;;;;;2.07;1.10;;;22.90;99.90;;;;;;5094503;28;21217;-92
2022/06/05 10:15:27;;;;;;;3.23;1.67;;;22.90;99.90;;;;;;5085977;28;20667;-91
2022/06/05 10:17:58;;;;;;;2.90;1.30;;;23.00;99.90;;;;;;5087095;28;20648;-91
2022/06/05 10:20:40;;;;;;;1.47;1.20;;;23.00;99.90;;;;;;5085242;28;20624;-90
2022/06/05 10:23:32;;;;;;;1.70;1.30;;;23.10;99.90;;;;;;5085322;28;20624;-90
2022/06/05 10:26:07;;;;;;;3.67;1.27;;;23.20;99.90;;;;;;5082321;28;20663;-90
2022/06/05 10:28:39;;;;;;;1.73;1.23;;;23.30;99.90;;;;;;5083672;28;20646;-91
2022/06/05 10:31:11;;;;;;;7.13;1.70;;;23.40;99.90;;;;;;5084561;28;20629;-91
2022/06/05 10:33:52;;;;;;;2.30;1.13;;;23.50;99.90;;;;;;5088871;28;20627;-91
2022/06/05 10:36:22;;;;;;;2.07;1.10;;;23.50;99.90;;;;;;5088281;28;20682;-91
2022/06/05 10:38:58;;;;;;;2.20;1.90;;;23.50;99.90;;;;;;5090374;28;20648;-91
2022/06/05 10:41:35;;;;;;;1.67;1.50;;;23.40;99.90;;;;;;5088981;28;20698;-91
2022/06/05 10:44:19;;;;;;;2.70;1.73;;;23.20;99.90;;;;;;5089084;28;20724;-91
2022/06/05 10:47:01;;;;;;;3.90;1.53;;;23.00;99.90;;;;;;5087728;28;20739;-93
2022/06/05 10:49:35;;;;;;;2.20;1.67;;;23.00;99.90;;;;;;5086223;28;20688;-94
2022/06/05 10:52:14;;;;;;;3.00;1.70;;;22.80;99.90;;;;;;5085964;28;20739;-93
2022/06/05 10:54:51;;;;;;;5.03;1.80;;;22.50;99.90;;;;;;5087509;28;21127;-94
2022/06/05 10:57:24;;;;;;;2.83;1.97;;;22.30;99.90;;;;;;5093794;28;20675;-91
2022/06/05 10:59:59;;;;;;;2.50;1.80;;;22.20;99.90;;;;;;5086584;28;21033;-90
2022/06/05 11:02:42;;;;;;;3.23;2.37;;;22.20;99.90;;;;;;5094050;28;21158;-91
2022/06/05 11:05:36;;;;;;;2.10;1.90;;;21.90;99.90;;;;;;5098983;28;20655;-93
2022/06/05 11:08:14;;;;;;;5.57;2.27;;;21.60;99.90;;;;;;5095608;28;20626;-91
2022/06/05 11:13:44;;;;;;;2.97;2.20;;;21.50;99.90;;;;;;5094003;28;20583;-93
2022/06/05 11:16:31;;;;;;;4.50;2.13;;;21.40;99.90;;;;;;5096895;28;21237;-93
2022/06/05 11:19:12;;;;;;;5.20;2.00;;;21.40;99.90;;;;;;5098359;28;20626;-94
2022/06/05 11:21:43;;;;;;;3.67;2.50;;;21.30;99.90;;;;;;5071510;28;21062;-93
2022/06/05 11:24:21;;;;;;;2.47;2.27;;;21.30;99.90;;;;;;5091286;28;20635;-92
2022/06/05 11:27:07;;;;;;;6.10;2.73;;;21.10;99.90;;;;;;5090989;28;20663;-94
2022/06/05 11:29:52;;;;;;;6.23;3.00;;;20.80;99.90;;;;;;5095845;28;20647;-94
2022/06/05 11:32:40;;;;;;;2.53;2.30;;;20.80;99.90;;;;;;5089762;28;20623;-95
2022/06/05 11:35:27;;;;;;;3.33;2.40;;;20.70;99.90;;;;;;5091232;28;20670;-94
2022/06/05 11:38:00;;;;;;;2.60;2.40;;;20.60;99.90;;;;;;5078435;28;21095;-94
2022/06/05 11:40:46;;;;;;;3.33;2.20;;;20.60;99.90;;;;;;5093413;28;20952;-93
2022/06/05 11:43:32;;;;;;;4.77;2.50;;;20.60;99.90;;;;;;5096920;28;20611;-93
2022/06/05 11:46:05;;;;;;;2.60;2.33;;;20.70;99.90;;;;;;5097510;28;20651;-94
2022/06/05 11:48:39;;;;;;;4.97;2.83;;;20.60;99.90;;;;;;5089892;28;20628;-95
2022/06/05 11:51:19;;;;;;;4.17;3.30;;;20.60;99.90;;;;;;5095822;28;20620;-95
2022/06/05 11:54:00;;;;;;;2.20;2.00;;;20.80;99.90;;;;;;5080174;28;20620;-95
2022/06/05 11:56:48;;;;;;;5.10;3.40;;;21.10;99.90;;;;;;5072721;28;20683;-95
2022/06/05 11:59:30;;;;;;;5.23;2.73;;;21.30;99.90;;;;;;5071537;28;20612;-93
2022/06/05 12:02:01;;;;;;;3.33;2.90;;;21.40;99.90;;;;;;5091529;28;20631;-94
2022/06/05 12:04:49;;;;;;;2.80;2.30;;;21.60;99.90;;;;;;5097652;28;20650;-95
2022/06/05 12:07:25;;;;;;;3.60;2.27;;;21.90;99.90;;;;;;5090865;28;20600;-94
2022/06/05 12:09:57;;;;;;;3.47;2.77;;;22.00;99.90;;;;;;5092095;28;20988;-94
2022/06/05 12:12:29;;;;;;;2.73;2.53;;;22.10;99.90;;;;;;5097618;28;20967;-93
2022/06/05 12:15:07;;;;;;;5.60;2.30;;;22.40;99.90;;;;;;5094634;28;21202;-93
2022/06/05 12:17:41;;;;;;;3.03;2.23;;;22.80;99.90;;;;;;5078990;28;20667;-92
2022/06/05 12:20:16;;;;;;;3.77;2.40;;;23.20;99.90;;;;;;5098245;28;20636;-94
2022/06/05 12:22:51;;;;;;;4.93;2.00;;;23.80;99.90;;;;;;5101971;28;20669;-92
2022/06/05 12:25:25;;;;;;;2.67;2.20;;;24.20;99.90;;;;;;5090407;28;20730;-92
2022/06/05 12:27:59;;;;;;;2.37;2.17;;;24.60;99.90;;;;;;5088032;28;20620;-92
2022/06/05 12:30:31;;;;;;;2.57;2.37;;;25.00;99.90;;;;;;5096770;28;20617;-92
2022/06/05 12:33:04;;;;;;;2.57;2.37;;;25.10;99.90;;;;;;5095233;28;20731;-91
2022/06/05 12:35:35;;;;;;;2.70;2.13;;;25.00;99.90;;;;;;5088001;28;21231;-92
2022/06/05 12:38:27;;;;;;;4.77;2.57;;;25.40;99.90;;;;;;5087114;28;20663;-91
2022/06/05 12:40:59;;;;;;;3.80;2.17;;;25.50;99.90;;;;;;5092339;28;21049;-91
2022/06/05 12:43:31;;;;;;;3.33;2.40;;;26.10;99.90;;;;;;5098642;28;20586;-92
2022/06/05 12:46:06;;;;;;;3.07;2.60;;;26.40;99.90;;;;;;5088611;28;20694;-91
2022/06/05 12:48:36;;;;;;;4.90;3.07;;;26.70;99.90;;;;;;5092419;28;20625;-92
2022/06/05 12:51:12;;;;;;;4.13;1.77;;;27.40;99.90;;;;;;5087470;28;21156;-90
2022/06/05 12:53:48;;;;;;;2.40;1.90;;;27.30;99.90;;;;;;5087704;28;21174;-89
2022/06/05 12:56:26;;;;;;;2.20;2.00;;;26.90;99.90;;;;;;5096828;28;20654;-89
2022/06/05 12:59:00;;;;;;;1.97;1.70;;;27.40;99.90;;;;;;5090531;28;20710;-90
2022/06/05 13:01:31;;;;;;;6.37;2.70;;;28.00;99.90;;;;;;5094926;28;20627;-89
2022/06/05 13:04:04;;;;;;;5.50;3.00;;;28.60;99.90;;;;;;5094284;28;20788;-89
2022/06/05 13:06:40;;;;;;;4.83;2.30;;;29.00;99.90;;;;;;5088447;28;20659;-90
2022/06/05 13:09:17;;;;;;;5.47;3.53;;;29.40;99.90;;;;;;5091811;28;20645;-89
2022/06/05 13:11:49;;;;;;;2.20;2.00;;;29.60;99.90;;;;;;5090125;28;20623;-89
2022/06/05 13:14:25;;;;;;;3.73;2.03;;;29.40;99.90;;;;;;5093178;28;20624;-89
2022/06/05 13:17:09;;;;;;;3.07;2.47;;;28.80;99.90;;;;;;5095227;28;20675;-89
2022/06/05 13:19:41;;;;;;;2.60;1.70;;;28.10;99.90;;;;;;5093857;28;20632;-89
2022/06/05 13:22:14;;;;;;;2.60;2.20;;;28.10;99.90;;;;;;5099252;28;20627;-89
2022/06/05 13:25:00;;;;;;;3.37;2.10;;;28.10;99.90;;;;;;5091815;28;20631;-88
2022/06/05 13:27:40;;;;;;;3.53;2.30;;;28.40;99.90;;;;;;5094486;28;20626;-89
2022/06/05 13:30:13;;;;;;;4.60;2.27;;;28.10;99.90;;;;;;5095521;28;20630;-89
2022/06/05 13:33:00;;;;;;;4.17;2.20;;;27.60;99.90;;;;;;5095654;28;20638;-88